sensor_id;sensor_type;location;lat;lon;timestamp;temperature;humidity
66582;SHT31;53438;48.898;2.308;2023-07-31T03:00:10;19.92;65.83
66582;SHT31;53438;48.898;2.308;2023-07-31T03:02:36;19.97;65.57
66582;SHT31;53438;48.898;2.308;2023-07-31T03:05:01;19.89;65.71
66582;SHT31;53438;48.898;2.308;2023-07-31T03:07:26;19.91;65.57
66582;SHT31;53438;48.898;2.308;2023-07-31T03:09:52;19.85;65.52
66582;SHT31;53438;48.898;2.308;2023-07-31T03:12:17;19.89;65.51
66582;SHT31;53438;48.898;2.308;2023-07-31T03:14:43;19.88;65.81
66582;SHT31;53438;48.898;2.308;2023-07-31T03:17:08;19.85;65.50
66582;SHT31;53438;48.898;2.308;2023-07-31T03:19:33;19.91;65.57
66582;SHT31;53438;48.898;2.308;2023-07-31T03:21:59;19.82;64.95
66582;SHT31;53438;48.898;2.308;2023-07-31T03:24:25;19.89;65.21
66582;SHT31;53438;48.898;2.308;2023-07-31T03:26:50;19.85;64.88
66582;SHT31;53438;48.898;2.308;2023-07-31T03:29:16;19.79;65.35
66582;SHT31;53438;48.898;2.308;2023-07-31T03:31:41;19.73;65.26
66582;SHT31;53438;48.898;2.308;2023-07-31T03:34:06;19.77;65.42
66582;SHT31;53438;48.898;2.308;2023-07-31T03:36:32;19.77;65.72
66582;SHT31;53438;48.898;2.308;2023-07-31T03:38:57;19.78;65.57
66582;SHT31;53438;48.898;2.308;2023-07-31T03:41:23;19.79;65.55
66582;SHT31;53438;48.898;2.308;2023-07-31T03:43:50;19.78;65.31
66582;SHT31;53438;48.898;2.308;2023-07-31T03:46:21;19.77;65.29
66582;SHT31;53438;48.898;2.308;2023-07-31T03:48:47;19.87;65.67
66582;SHT31;53438;48.898;2.308;2023-07-31T03:51:12;19.74;65.59
66582;SHT31;53438;48.898;2.308;2023-07-31T03:53:37;19.78;65.50
66582;SHT31;53438;48.898;2.308;2023-07-31T03:56:03;19.74;65.15
66582;SHT31;53438;48.898;2.308;2023-07-31T03:58:28;19.70;65.45
66582;SHT31;53438;48.898;2.308;2023-07-31T04:00:53;19.73;65.46
66582;SHT31;53438;48.898;2.308;2023-07-31T04:03:19;19.58;65.16
66582;SHT31;53438;48.898;2.308;2023-07-31T04:05:44;19.64;65.15
66582;SHT31;53438;48.898;2.308;2023-07-31T04:08:10;19.66;65.02
66582;SHT31;53438;48.898;2.308;2023-07-31T04:10:35;19.71;65.22
66582;SHT31;53438;48.898;2.308;2023-07-31T04:13:00;19.70;65.23
66582;SHT31;53438;48.898;2.308;2023-07-31T04:15:26;19.63;64.41
66582;SHT31;53438;48.898;2.308;2023-07-31T04:17:51;19.61;64.73
66582;SHT31;53438;48.898;2.308;2023-07-31T04:20:17;19.54;64.89
66582;SHT31;53438;48.898;2.308;2023-07-31T04:22:42;19.54;64.21
66582;SHT31;53438;48.898;2.308;2023-07-31T04:25:08;19.66;63.89
66582;SHT31;53438;48.898;2.308;2023-07-31T04:27:33;19.60;63.91
66582;SHT31;53438;48.898;2.308;2023-07-31T04:29:58;19.70;63.74
66582;SHT31;53438;48.898;2.308;2023-07-31T04:32:24;19.60;63.92
66582;SHT31;53438;48.898;2.308;2023-07-31T04:34:49;19.49;64.07
66582;SHT31;53438;48.898;2.308;2023-07-31T04:37:14;19.40;64.17
66582;SHT31;53438;48.898;2.308;2023-07-31T04:39:40;19.45;64.00
66582;SHT31;53438;48.898;2.308;2023-07-31T04:42:05;19.23;64.53
66582;SHT31;53438;48.898;2.308;2023-07-31T04:44:30;19.20;65.20
66582;SHT31;53438;48.898;2.308;2023-07-31T04:46:56;19.19;65.02
66582;SHT31;53438;48.898;2.308;2023-07-31T04:49:21;19.08;65.98
66582;SHT31;53438;48.898;2.308;2023-07-31T04:51:47;19.10;65.81
66582;SHT31;53438;48.898;2.308;2023-07-31T04:54:12;19.17;65.92
66582;SHT31;53438;48.898;2.308;2023-07-31T04:56:40;19.23;65.67
66582;SHT31;53438;48.898;2.308;2023-07-31T04:59:05;19.27;65.95
66582;SHT31;53438;48.898;2.308;2023-07-31T05:01:30;19.23;66.45
66582;SHT31;53438;48.898;2.308;2023-07-31T05:03:56;19.19;66.80
66582;SHT31;53438;48.898;2.308;2023-07-31T05:06:21;19.27;66.48
66582;SHT31;53438;48.898;2.308;2023-07-31T05:08:46;19.30;66.73
66582;SHT31;53438;48.898;2.308;2023-07-31T05:11:12;19.16;67.28
66582;SHT31;53438;48.898;2.308;2023-07-31T05:13:37;19.17;67.38
66582;SHT31;53438;48.898;2.308;2023-07-31T05:16:03;19.22;67.56
66582;SHT31;53438;48.898;2.308;2023-07-31T05:18:29;19.34;67.43
66582;SHT31;53438;48.898;2.308;2023-07-31T05:20:54;19.34;67.74
66582;SHT31;53438;48.898;2.308;2023-07-31T05:23:19;19.19;68.14
66582;SHT31;53438;48.898;2.308;2023-07-31T05:25:45;19.27;68.08
66582;SHT31;53438;48.898;2.308;2023-07-31T05:28:11;19.23;68.36
66582;SHT31;53438;48.898;2.308;2023-07-31T05:30:37;19.22;68.16
66582;SHT31;53438;48.898;2.308;2023-07-31T05:33:02;19.37;68.20
66582;SHT31;53438;48.898;2.308;2023-07-31T05:35:27;19.33;68.33
66582;SHT31;53438;48.898;2.308;2023-07-31T05:37:53;19.30;68.90
66582;SHT31;53438;48.898;2.308;2023-07-31T05:40:18;19.33;69.16
66582;SHT31;53438;48.898;2.308;2023-07-31T05:42:43;19.36;69.45
66582;SHT31;53438;48.898;2.308;2023-07-31T05:45:09;19.39;69.85
66582;SHT31;53438;48.898;2.308;2023-07-31T05:47:35;19.53;69.49
66582;SHT31;53438;48.898;2.308;2023-07-31T05:50:00;19.36;69.54
66582;SHT31;53438;48.898;2.308;2023-07-31T05:52:25;19.46;69.76
66582;SHT31;53438;48.898;2.308;2023-07-31T05:54:51;19.46;69.58
66582;SHT31;53438;48.898;2.308;2023-07-31T05:57:16;19.50;69.36
66582;SHT31;53438;48.898;2.308;2023-07-31T05:59:42;19.50;69.87
66582;SHT31;53438;48.898;2.308;2023-07-31T06:02:07;19.41;69.86
66582;SHT31;53438;48.898;2.308;2023-07-31T06:04:32;19.34;70.26
66582;SHT31;53438;48.898;2.308;2023-07-31T06:06:58;19.36;70.39
66582;SHT31;53438;48.898;2.308;2023-07-31T06:09:23;19.43;70.30
66582;SHT31;53438;48.898;2.308;2023-07-31T06:11:50;19.34;70.47
66582;SHT31;53438;48.898;2.308;2023-07-31T06:14:15;19.26;70.77
66582;SHT31;53438;48.898;2.308;2023-07-31T06:16:41;19.34;70.78
66582;SHT31;53438;48.898;2.308;2023-07-31T06:19:06;19.30;71.27
66582;SHT31;53438;48.898;2.308;2023-07-31T06:21:32;19.36;70.95
66582;SHT31;53438;48.898;2.308;2023-07-31T06:23:58;19.17;71.31
66582;SHT31;53438;48.898;2.308;2023-07-31T06:26:24;19.33;70.99
66582;SHT31;53438;48.898;2.308;2023-07-31T06:28:50;19.22;71.35
66582;SHT31;53438;48.898;2.308;2023-07-31T06:31:15;19.34;71.16
66582;SHT31;53438;48.898;2.308;2023-07-31T06:33:40;19.09;72.09
66582;SHT31;53438;48.898;2.308;2023-07-31T06:36:06;19.19;72.03
66582;SHT31;53438;48.898;2.308;2023-07-31T06:38:31;19.30;71.73
66582;SHT31;53438;48.898;2.308;2023-07-31T06:40:57;19.24;71.99
66582;SHT31;53438;48.898;2.308;2023-07-31T06:43:22;19.37;71.66
66582;SHT31;53438;48.898;2.308;2023-07-31T06:45:47;19.39;71.53
66582;SHT31;53438;48.898;2.308;2023-07-31T06:48:16;19.23;71.96
66582;SHT31;53438;48.898;2.308;2023-07-31T06:50:41;19.20;72.24
66582;SHT31;53438;48.898;2.308;2023-07-31T06:53:06;19.40;72.01
66582;SHT31;53438;48.898;2.308;2023-07-31T06:55:32;19.16;72.39
66582;SHT31;53438;48.898;2.308;2023-07-31T06:57:57;19.23;72.36
66582;SHT31;53438;48.898;2.308;2023-07-31T07:00:23;19.27;72.35
66582;SHT31;53438;48.898;2.308;2023-07-31T07:02:49;19.29;72.47
66582;SHT31;53438;48.898;2.308;2023-07-31T07:05:16;19.33;72.59
66582;SHT31;53438;48.898;2.308;2023-07-31T07:07:42;19.41;72.21
66582;SHT31;53438;48.898;2.308;2023-07-31T07:10:08;19.36;72.38
66582;SHT31;53438;48.898;2.308;2023-07-31T07:12:34;19.31;72.60
66582;SHT31;53438;48.898;2.308;2023-07-31T07:15:00;19.37;72.16
66582;SHT31;53438;48.898;2.308;2023-07-31T07:17:27;19.41;72.12
66582;SHT31;53438;48.898;2.308;2023-07-31T07:19:52;19.50;72.11
66582;SHT31;53438;48.898;2.308;2023-07-31T07:22:18;19.43;72.12
66582;SHT31;53438;48.898;2.308;2023-07-31T07:24:43;19.46;71.91
66582;SHT31;53438;48.898;2.308;2023-07-31T07:27:09;19.57;71.55
66582;SHT31;53438;48.898;2.308;2023-07-31T07:29:35;19.56;71.64
66582;SHT31;53438;48.898;2.308;2023-07-31T07:32:00;19.67;71.47
66582;SHT31;53438;48.898;2.308;2023-07-31T07:34:27;19.61;71.50
66582;SHT31;53438;48.898;2.308;2023-07-31T07:36:53;19.71;71.36
66582;SHT31;53438;48.898;2.308;2023-07-31T07:39:18;19.74;71.33
66582;SHT31;53438;48.898;2.308;2023-07-31T07:41:44;19.66;71.29
66582;SHT31;53438;48.898;2.308;2023-07-31T07:44:09;19.85;71.02
66582;SHT31;53438;48.898;2.308;2023-07-31T07:46:34;19.85;71.16
66582;SHT31;53438;48.898;2.308;2023-07-31T07:49:00;19.92;70.93
66582;SHT31;53438;48.898;2.308;2023-07-31T07:51:25;20.04;70.53
66582;SHT31;53438;48.898;2.308;2023-07-31T07:53:50;19.84;70.23
66582;SHT31;53438;48.898;2.308;2023-07-31T07:56:16;19.74;70.75
66582;SHT31;53438;48.898;2.308;2023-07-31T07:58:41;19.89;70.54
66582;SHT31;53438;48.898;2.308;2023-07-31T08:01:06;20.02;70.59
66582;SHT31;53438;48.898;2.308;2023-07-31T08:03:32;20.09;70.05
66582;SHT31;53438;48.898;2.308;2023-07-31T08:05:59;19.85;70.44
66582;SHT31;53438;48.898;2.308;2023-07-31T08:08:24;20.02;69.98
66582;SHT31;53438;48.898;2.308;2023-07-31T08:10:50;20.02;70.18
66582;SHT31;53438;48.898;2.308;2023-07-31T08:13:15;19.95;70.02
66582;SHT31;53438;48.898;2.308;2023-07-31T08:15:41;19.99;69.39
66582;SHT31;53438;48.898;2.308;2023-07-31T08:18:07;20.12;69.58
66582;SHT31;53438;48.898;2.308;2023-07-31T08:20:33;20.12;68.96
66582;SHT31;53438;48.898;2.308;2023-07-31T08:22:58;20.22;68.48
66582;SHT31;53438;48.898;2.308;2023-07-31T08:25:23;20.45;68.18
66582;SHT31;53438;48.898;2.308;2023-07-31T08:27:48;20.25;68.00
66582;SHT31;53438;48.898;2.308;2023-07-31T08:30:14;20.50;67.71
66582;SHT31;53438;48.898;2.308;2023-07-31T08:32:39;20.49;67.70
66582;SHT31;53438;48.898;2.308;2023-07-31T08:35:05;20.53;67.61
66582;SHT31;53438;48.898;2.308;2023-07-31T08:37:30;20.52;67.76
66582;SHT31;53438;48.898;2.308;2023-07-31T08:39:55;20.52;67.81
66582;SHT31;53438;48.898;2.308;2023-07-31T08:42:21;20.56;67.70
66582;SHT31;53438;48.898;2.308;2023-07-31T08:44:47;20.56;67.59
66582;SHT31;53438;48.898;2.308;2023-07-31T08:47:13;20.55;68.16
66582;SHT31;53438;48.898;2.308;2023-07-31T08:49:41;20.43;68.22
66582;SHT31;53438;48.898;2.308;2023-07-31T08:52:07;20.42;68.15
66582;SHT31;53438;48.898;2.308;2023-07-31T08:54:33;20.46;68.06
66582;SHT31;53438;48.898;2.308;2023-07-31T08:56:58;20.49;68.05
66582;SHT31;53438;48.898;2.308;2023-07-31T08:59:26;20.62;68.12
66582;SHT31;53438;48.898;2.308;2023-07-31T09:01:54;20.60;67.88
66582;SHT31;53438;48.898;2.308;2023-07-31T09:04:21;20.65;67.81
66582;SHT31;53438;48.898;2.308;2023-07-31T09:06:48;20.70;67.87
66582;SHT31;53438;48.898;2.308;2023-07-31T09:09:13;20.75;67.68
66582;SHT31;53438;48.898;2.308;2023-07-31T09:11:39;20.79;67.62
66582;SHT31;53438;48.898;2.308;2023-07-31T09:14:05;20.76;68.25
66582;SHT31;53438;48.898;2.308;2023-07-31T09:16:34;20.72;68.50
66582;SHT31;53438;48.898;2.308;2023-07-31T09:19:00;20.73;69.09
66582;SHT31;53438;48.898;2.308;2023-07-31T09:21:27;20.79;68.46
66582;SHT31;53438;48.898;2.308;2023-07-31T09:23:53;20.84;68.41
66582;SHT31;53438;48.898;2.308;2023-07-31T09:26:36;20.84;68.59
66582;SHT31;53438;48.898;2.308;2023-07-31T09:29:05;20.88;68.67
66582;SHT31;53438;48.898;2.308;2023-07-31T09:31:33;20.57;68.41
66582;SHT31;53438;48.898;2.308;2023-07-31T09:33:59;20.53;68.93
66582;SHT31;53438;48.898;2.308;2023-07-31T09:36:29;20.52;69.56
66582;SHT31;53438;48.898;2.308;2023-07-31T09:38:54;20.52;69.63
66582;SHT31;53438;48.898;2.308;2023-07-31T09:41:20;20.56;69.70
66582;SHT31;53438;48.898;2.308;2023-07-31T09:43:53;20.50;70.05
66582;SHT31;53438;48.898;2.308;2023-07-31T09:46:20;20.56;69.80
66582;SHT31;53438;48.898;2.308;2023-07-31T09:48:45;20.50;69.91
66582;SHT31;53438;48.898;2.308;2023-07-31T09:51:11;20.60;69.83
66582;SHT31;53438;48.898;2.308;2023-07-31T09:53:36;20.57;70.24
66582;SHT31;53438;48.898;2.308;2023-07-31T09:56:02;20.66;69.98
66582;SHT31;53438;48.898;2.308;2023-07-31T09:58:29;20.63;70.12
66582;SHT31;53438;48.898;2.308;2023-07-31T10:00:55;20.57;70.50
66582;SHT31;53438;48.898;2.308;2023-07-31T10:03:22;20.56;70.68
66582;SHT31;53438;48.898;2.308;2023-07-31T10:05:50;20.59;71.34
66582;SHT31;53438;48.898;2.308;2023-07-31T10:08:17;20.57;72.12
66582;SHT31;53438;48.898;2.308;2023-07-31T10:10:44;20.56;72.18
66582;SHT31;53438;48.898;2.308;2023-07-31T10:13:10;20.52;71.96
66582;SHT31;53438;48.898;2.308;2023-07-31T10:15:36;20.42;71.88
66582;SHT31;53438;48.898;2.308;2023-07-31T10:18:02;20.47;71.95
66582;SHT31;53438;48.898;2.308;2023-07-31T10:20:28;20.39;73.03
66582;SHT31;53438;48.898;2.308;2023-07-31T10:22:57;20.25;75.12
66582;SHT31;53438;48.898;2.308;2023-07-31T10:25:23;20.12;75.13
66582;SHT31;53438;48.898;2.308;2023-07-31T10:27:49;20.05;75.46
66582;SHT31;53438;48.898;2.308;2023-07-31T10:30:17;19.97;75.56
66582;SHT31;53438;48.898;2.308;2023-07-31T10:32:44;19.94;76.04
66582;SHT31;53438;48.898;2.308;2023-07-31T10:35:11;19.95;76.17
66582;SHT31;53438;48.898;2.308;2023-07-31T10:37:41;20.02;76.04
66582;SHT31;53438;48.898;2.308;2023-07-31T10:40:16;19.97;76.25
66582;SHT31;53438;48.898;2.308;2023-07-31T10:45:34;19.94;76.49
66582;SHT31;53438;48.898;2.308;2023-07-31T10:48:05;19.92;76.73
66582;SHT31;53438;48.898;2.308;2023-07-31T10:50:32;19.87;77.78
66582;SHT31;53438;48.898;2.308;2023-07-31T10:53:01;19.88;78.21
66582;SHT31;53438;48.898;2.308;2023-07-31T10:55:38;20.04;76.98
66582;SHT31;53438;48.898;2.308;2023-07-31T10:58:10;20.07;76.97
66582;SHT31;53438;48.898;2.308;2023-07-31T11:00:43;20.05;76.62
66582;SHT31;53438;48.898;2.308;2023-07-31T11:03:19;20.04;76.59
66582;SHT31;53438;48.898;2.308;2023-07-31T11:06:02;20.11;77.39
66582;SHT31;53438;48.898;2.308;2023-07-31T11:08:32;20.08;77.00
66582;SHT31;53438;48.898;2.308;2023-07-31T11:13:27;19.81;78.47
66582;SHT31;53438;48.898;2.308;2023-07-31T11:15:52;19.91;78.47
66582;SHT31;53438;48.898;2.308;2023-07-31T11:18:17;19.88;78.94
66582;SHT31;53438;48.898;2.308;2023-07-31T11:20:43;19.95;79.34
66582;SHT31;53438;48.898;2.308;2023-07-31T11:23:10;19.87;78.82
66582;SHT31;53438;48.898;2.308;2023-07-31T11:25:36;19.84;80.07
66582;SHT31;53438;48.898;2.308;2023-07-31T11:28:09;19.89;79.31
66582;SHT31;53438;48.898;2.308;2023-07-31T11:30:35;19.84;79.81
66582;SHT31;53438;48.898;2.308;2023-07-31T11:33:02;19.84;79.69
66582;SHT31;53438;48.898;2.308;2023-07-31T11:35:29;19.92;79.42
66582;SHT31;53438;48.898;2.308;2023-07-31T11:37:55;19.91;79.45
66582;SHT31;53438;48.898;2.308;2023-07-31T11:40:20;19.94;79.90
66582;SHT31;53438;48.898;2.308;2023-07-31T11:42:45;19.94;79.84
66582;SHT31;53438;48.898;2.308;2023-07-31T11:45:11;19.94;79.00
66582;SHT31;53438;48.898;2.308;2023-07-31T11:47:37;19.99;79.06
66582;SHT31;53438;48.898;2.308;2023-07-31T11:50:04;20.04;79.03
66582;SHT31;53438;48.898;2.308;2023-07-31T11:52:41;20.08;78.18
66582;SHT31;53438;48.898;2.308;2023-07-31T11:55:09;20.04;78.32
66582;SHT31;53438;48.898;2.308;2023-07-31T11:57:37;20.15;78.30
66582;SHT31;53438;48.898;2.308;2023-07-31T12:00:03;20.19;78.56
66582;SHT31;53438;48.898;2.308;2023-07-31T12:02:29;20.09;78.08
66582;SHT31;53438;48.898;2.308;2023-07-31T12:04:55;20.16;78.07
66582;SHT31;53438;48.898;2.308;2023-07-31T12:07:20;20.22;78.16
66582;SHT31;53438;48.898;2.308;2023-07-31T12:09:54;20.25;77.70
66582;SHT31;53438;48.898;2.308;2023-07-31T12:12:21;20.30;78.57
66582;SHT31;53438;48.898;2.308;2023-07-31T12:14:47;20.28;77.79
66582;SHT31;53438;48.898;2.308;2023-07-31T12:17:14;20.30;78.05
66582;SHT31;53438;48.898;2.308;2023-07-31T12:19:39;20.35;77.90
66582;SHT31;53438;48.898;2.308;2023-07-31T12:22:15;20.36;77.52
66582;SHT31;53438;48.898;2.308;2023-07-31T12:24:43;20.35;77.99
66582;SHT31;53438;48.898;2.308;2023-07-31T12:27:12;20.36;78.22
66582;SHT31;53438;48.898;2.308;2023-07-31T12:29:38;20.35;78.33
66582;SHT31;53438;48.898;2.308;2023-07-31T12:32:17;20.40;78.28
66582;SHT31;53438;48.898;2.308;2023-07-31T12:34:43;20.35;77.67
66582;SHT31;53438;48.898;2.308;2023-07-31T12:37:08;20.45;77.95
66582;SHT31;53438;48.898;2.308;2023-07-31T12:39:34;20.40;77.66
66582;SHT31;53438;48.898;2.308;2023-07-31T12:41:59;20.50;77.21
66582;SHT31;53438;48.898;2.308;2023-07-31T12:44:25;20.53;76.75
66582;SHT31;53438;48.898;2.308;2023-07-31T12:46:50;20.52;75.86
66582;SHT31;53438;48.898;2.308;2023-07-31T12:49:15;20.57;75.71
66582;SHT31;53438;48.898;2.308;2023-07-31T12:51:40;20.67;75.80
66582;SHT31;53438;48.898;2.308;2023-07-31T12:54:06;20.69;75.69
66582;SHT31;53438;48.898;2.308;2023-07-31T12:56:32;20.70;74.97
66582;SHT31;53438;48.898;2.308;2023-07-31T12:58:57;20.75;74.98
66582;SHT31;53438;48.898;2.308;2023-07-31T13:01:23;20.80;75.10
66582;SHT31;53438;48.898;2.308;2023-07-31T13:03:48;20.88;74.79
66582;SHT31;53438;48.898;2.308;2023-07-31T13:06:14;20.94;74.97
66582;SHT31;53438;48.898;2.308;2023-07-31T13:08:39;20.98;74.56
66582;SHT31;53438;48.898;2.308;2023-07-31T13:11:04;20.96;74.08
66582;SHT31;53438;48.898;2.308;2023-07-31T13:13:30;20.96;74.11
66582;SHT31;53438;48.898;2.308;2023-07-31T13:15:55;20.98;74.55
66582;SHT31;53438;48.898;2.308;2023-07-31T13:18:20;21.03;74.09
66582;SHT31;53438;48.898;2.308;2023-07-31T13:20:46;21.03;74.16
66582;SHT31;53438;48.898;2.308;2023-07-31T13:23:11;21.04;74.41
66582;SHT31;53438;48.898;2.308;2023-07-31T13:25:37;21.07;74.38
66582;SHT31;53438;48.898;2.308;2023-07-31T13:28:02;21.10;73.87
66582;SHT31;53438;48.898;2.308;2023-07-31T13:30:28;21.12;73.63
66582;SHT31;53438;48.898;2.308;2023-07-31T13:32:53;21.12;73.83
66582;SHT31;53438;48.898;2.308;2023-07-31T13:35:19;21.10;73.37
66582;SHT31;53438;48.898;2.308;2023-07-31T13:37:44;21.04;74.07
66582;SHT31;53438;48.898;2.308;2023-07-31T13:40:10;21.03;74.44
66582;SHT31;53438;48.898;2.308;2023-07-31T13:42:35;20.90;75.34
66582;SHT31;53438;48.898;2.308;2023-07-31T13:45:01;20.86;76.34
66582;SHT31;53438;48.898;2.308;2023-07-31T13:47:26;20.67;77.56
66582;SHT31;53438;48.898;2.308;2023-07-31T13:49:51;20.62;78.20
66582;SHT31;53438;48.898;2.308;2023-07-31T13:52:17;20.45;79.74
66582;SHT31;53438;48.898;2.308;2023-07-31T13:54:42;20.39;79.75
66582;SHT31;53438;48.898;2.308;2023-07-31T13:57:08;20.46;79.71
66582;SHT31;53438;48.898;2.308;2023-07-31T13:59:33;20.46;80.13
66582;SHT31;53438;48.898;2.308;2023-07-31T14:01:59;20.49;79.62
66582;SHT31;53438;48.898;2.308;2023-07-31T14:04:24;20.55;79.62
66582;SHT31;53438;48.898;2.308;2023-07-31T14:06:49;20.55;80.67
66582;SHT31;53438;48.898;2.308;2023-07-31T14:09:15;20.60;79.43
66582;SHT31;53438;48.898;2.308;2023-07-31T14:11:42;20.65;79.19
66582;SHT31;53438;48.898;2.308;2023-07-31T14:14:09;20.67;79.22
66582;SHT31;53438;48.898;2.308;2023-07-31T14:16:34;20.69;79.08
66582;SHT31;53438;48.898;2.308;2023-07-31T14:18:59;20.57;79.93
66582;SHT31;53438;48.898;2.308;2023-07-31T14:21:25;20.60;80.37
66582;SHT31;53438;48.898;2.308;2023-07-31T14:23:51;20.62;80.75
66582;SHT31;53438;48.898;2.308;2023-07-31T14:26:16;20.67;80.42
66582;SHT31;53438;48.898;2.308;2023-07-31T14:28:42;20.66;80.13
66582;SHT31;53438;48.898;2.308;2023-07-31T14:31:07;20.60;81.11
66582;SHT31;53438;48.898;2.308;2023-07-31T14:33:33;20.56;80.70
66582;SHT31;53438;48.898;2.308;2023-07-31T14:35:58;20.59;80.73
66582;SHT31;53438;48.898;2.308;2023-07-31T14:38:24;20.55;79.97
66582;SHT31;53438;48.898;2.308;2023-07-31T14:40:49;20.55;79.97
66582;SHT31;53438;48.898;2.308;2023-07-31T14:43:15;20.47;80.66
66582;SHT31;53438;48.898;2.308;2023-07-31T14:45:40;20.56;80.41
66582;SHT31;53438;48.898;2.308;2023-07-31T14:48:05;20.55;81.12
66582;SHT31;53438;48.898;2.308;2023-07-31T14:50:31;20.56;80.71
66582;SHT31;53438;48.898;2.308;2023-07-31T14:52:56;20.57;80.83
66582;SHT31;53438;48.898;2.308;2023-07-31T14:55:22;20.67;80.48
66582;SHT31;53438;48.898;2.308;2023-07-31T14:57:47;20.76;79.75
66582;SHT31;53438;48.898;2.308;2023-07-31T15:00:13;20.75;79.59
66582;SHT31;53438;48.898;2.308;2023-07-31T15:02:38;20.76;79.78
66582;SHT31;53438;48.898;2.308;2023-07-31T15:05:04;20.76;79.55
66582;SHT31;53438;48.898;2.308;2023-07-31T15:07:30;20.79;79.57
66582;SHT31;53438;48.898;2.308;2023-07-31T15:09:55;20.75;79.81
66582;SHT31;53438;48.898;2.308;2023-07-31T15:12:21;20.80;79.57
66582;SHT31;53438;48.898;2.308;2023-07-31T15:14:48;20.77;79.08
66582;SHT31;53438;48.898;2.308;2023-07-31T15:17:13;20.72;79.42
66582;SHT31;53438;48.898;2.308;2023-07-31T15:19:39;20.77;79.09
66582;SHT31;53438;48.898;2.308;2023-07-31T15:22:04;20.75;79.61
66582;SHT31;53438;48.898;2.308;2023-07-31T15:24:31;20.81;79.86
66582;SHT31;53438;48.898;2.308;2023-07-31T15:26:56;20.75;79.53
66582;SHT31;53438;48.898;2.308;2023-07-31T15:29:22;20.75;79.56
66582;SHT31;53438;48.898;2.308;2023-07-31T15:31:48;20.70;79.74
66582;SHT31;53438;48.898;2.308;2023-07-31T15:34:14;20.67;79.49
66582;SHT31;53438;48.898;2.308;2023-07-31T15:36:40;20.63;79.44
66582;SHT31;53438;48.898;2.308;2023-07-31T15:39:05;20.55;79.43
66582;SHT31;53438;48.898;2.308;2023-07-31T15:41:33;20.59;79.81
66582;SHT31;53438;48.898;2.308;2023-07-31T15:43:59;20.56;79.72
66582;SHT31;53438;48.898;2.308;2023-07-31T15:46:24;20.53;80.04
66582;SHT31;53438;48.898;2.308;2023-07-31T15:48:49;20.56;80.06
66582;SHT31;53438;48.898;2.308;2023-07-31T15:51:15;20.56;80.38
66582;SHT31;53438;48.898;2.308;2023-07-31T15:53:40;20.50;80.61
66582;SHT31;53438;48.898;2.308;2023-07-31T15:56:06;20.45;80.62
66582;SHT31;53438;48.898;2.308;2023-07-31T15:58:31;20.50;80.71
66582;SHT31;53438;48.898;2.308;2023-07-31T16:00:57;20.47;80.49
66582;SHT31;53438;48.898;2.308;2023-07-31T16:03:23;20.45;80.38
66582;SHT31;53438;48.898;2.308;2023-07-31T16:05:48;20.45;80.91
66582;SHT31;53438;48.898;2.308;2023-07-31T16:08:14;20.42;81.06
66582;SHT31;53438;48.898;2.308;2023-07-31T16:10:39;20.32;81.46
66582;SHT31;53438;48.898;2.308;2023-07-31T16:13:04;20.25;82.25
66582;SHT31;53438;48.898;2.308;2023-07-31T16:15:30;20.07;82.27
66582;SHT31;53438;48.898;2.308;2023-07-31T16:17:55;20.18;82.97
66582;SHT31;53438;48.898;2.308;2023-07-31T16:20:20;20.22;82.80
66582;SHT31;53438;48.898;2.308;2023-07-31T16:22:46;20.21;82.78
66582;SHT31;53438;48.898;2.308;2023-07-31T16:25:12;20.22;83.28
66582;SHT31;53438;48.898;2.308;2023-07-31T16:27:37;20.21;82.80
66582;SHT31;53438;48.898;2.308;2023-07-31T16:30:03;20.22;82.79
66582;SHT31;53438;48.898;2.308;2023-07-31T16:32:28;20.19;83.00
66582;SHT31;53438;48.898;2.308;2023-07-31T16:34:54;20.19;83.08
66582;SHT31;53438;48.898;2.308;2023-07-31T16:37:19;20.15;82.62
66582;SHT31;53438;48.898;2.308;2023-07-31T16:39:45;20.18;83.44
66582;SHT31;53438;48.898;2.308;2023-07-31T16:42:14;20.22;83.33
66582;SHT31;53438;48.898;2.308;2023-07-31T16:44:39;20.24;83.04
66582;SHT31;53438;48.898;2.308;2023-07-31T16:47:04;20.11;83.48
66582;SHT31;53438;48.898;2.308;2023-07-31T16:49:30;20.07;83.80
66582;SHT31;53438;48.898;2.308;2023-07-31T16:51:55;19.97;84.37
66582;SHT31;53438;48.898;2.308;2023-07-31T16:54:21;20.01;84.34
66582;SHT31;53438;48.898;2.308;2023-07-31T16:56:46;20.04;84.36
66582;SHT31;53438;48.898;2.308;2023-07-31T16:59:15;20.04;84.37
66582;SHT31;53438;48.898;2.308;2023-07-31T17:01:40;20.01;84.59
66582;SHT31;53438;48.898;2.308;2023-07-31T17:04:06;20.04;84.62
66582;SHT31;53438;48.898;2.308;2023-07-31T17:06:31;20.05;84.46
66582;SHT31;53438;48.898;2.308;2023-07-31T17:08:56;20.11;84.31
66582;SHT31;53438;48.898;2.308;2023-07-31T17:11:23;19.99;84.75
66582;SHT31;53438;48.898;2.308;2023-07-31T17:13:48;20.01;84.72
66582;SHT31;53438;48.898;2.308;2023-07-31T17:16:13;19.99;85.17
66582;SHT31;53438;48.898;2.308;2023-07-31T17:18:39;20.02;84.93
66582;SHT31;53438;48.898;2.308;2023-07-31T17:21:04;20.05;85.08
66582;SHT31;53438;48.898;2.308;2023-07-31T17:23:29;19.99;84.84
66582;SHT31;53438;48.898;2.308;2023-07-31T17:25:55;19.98;85.33
66582;SHT31;53438;48.898;2.308;2023-07-31T17:28:20;20.02;84.85
66582;SHT31;53438;48.898;2.308;2023-07-31T17:30:47;20.01;85.02
66582;SHT31;53438;48.898;2.308;2023-07-31T17:33:14;20.05;84.86
66582;SHT31;53438;48.898;2.308;2023-07-31T17:35:39;19.99;84.71
66582;SHT31;53438;48.898;2.308;2023-07-31T17:38:05;20.05;84.56
66582;SHT31;53438;48.898;2.308;2023-07-31T17:40:30;20.04;84.59
66582;SHT31;53438;48.898;2.308;2023-07-31T17:42:56;20.04;84.15
66582;SHT31;53438;48.898;2.308;2023-07-31T17:45:21;20.05;83.81
66582;SHT31;53438;48.898;2.308;2023-07-31T17:47:46;20.05;83.93
66582;SHT31;53438;48.898;2.308;2023-07-31T17:50:12;20.07;84.11
66582;SHT31;53438;48.898;2.308;2023-07-31T17:52:37;20.09;84.10
66582;SHT31;53438;48.898;2.308;2023-07-31T17:55:03;20.11;83.83
66582;SHT31;53438;48.898;2.308;2023-07-31T17:57:28;20.09;83.82
66582;SHT31;53438;48.898;2.308;2023-07-31T17:59:54;20.08;83.61
66582;SHT31;53438;48.898;2.308;2023-07-31T18:02:19;20.16;83.81
66582;SHT31;53438;48.898;2.308;2023-07-31T18:04:45;20.16;83.49
66582;SHT31;53438;48.898;2.308;2023-07-31T18:07:10;20.15;83.47
66582;SHT31;53438;48.898;2.308;2023-07-31T18:09:38;20.18;83.72
66582;SHT31;53438;48.898;2.308;2023-07-31T18:12:04;20.16;83.43
66582;SHT31;53438;48.898;2.308;2023-07-31T18:14:29;20.21;83.61
66582;SHT31;53438;48.898;2.308;2023-07-31T18:16:57;20.14;83.61
66582;SHT31;53438;48.898;2.308;2023-07-31T18:19:23;20.12;83.56
66582;SHT31;53438;48.898;2.308;2023-07-31T18:21:48;20.11;83.99
66582;SHT31;53438;48.898;2.308;2023-07-31T18:24:13;20.15;83.56
66582;SHT31;53438;48.898;2.308;2023-07-31T18:26:39;20.12;83.55